sensor_id;sensor_type;location;lat;lon;timestamp;pressure;altitude;pressure_sealevel;temperature;humidity
30554;BME280;17335;50.720;7.452;2023-02-03T00:01:45;100294.97;;;7.22;100.00
30554;BME280;17335;50.720;7.452;2023-02-03T00:04:11;100300.66;;;7.30;100.00
30554;BME280;17335;50.720;7.452;2023-02-03T00:06:38;100295.44;;;7.28;100.00
30554;BME280;17335;50.720;7.452;2023-02-03T00:09:05;100289.59;;;7.36;100.00
30554;BME280;17335;50.720;7.452;2023-02-03T00:11:31;100286.56;;;7.28;100.00
30554;BME280;17335;50.720;7.452;2023-02-03T00:13:58;100281.97;;;7.30;100.00
30554;BME280;17335;50.720;7.452;2023-02-03T00:16:24;100279.41;;;7.28;100.00
30554;BME280;17335;50.720;7.452;2023-02-03T00:18:51;100265.56;;;7.36;100.00
30554;BME280;17335;50.720;7.452;2023-02-03T00:21:17;100264.56;;;7.37;100.00
30554;BME280;17335;50.720;7.452;2023-02-03T00:23:44;100257.00;;;7.31;100.00
30554;BME280;17335;50.720;7.452;2023-02-03T00:26:13;100232.41;;;7.26;100.00
30554;BME280;17335;50.720;7.452;2023-02-03T00:28:40;100230.28;;;7.31;100.00
30554;BME280;17335;50.720;7.452;2023-02-03T00:31:14;100225.97;;;7.28;100.00
30554;BME280;17335;50.720;7.452;2023-02-03T00:33:40;100227.81;;;7.28;100.00
30554;BME280;17335;50.720;7.452;2023-02-03T00:36:07;100230.78;;;7.23;100.00
30554;BME280;17335;50.720;7.452;2023-02-03T00:38:34;100237.75;;;7.26;100.00
30554;BME280;17335;50.720;7.452;2023-02-03T00:41:00;100245.09;;;7.22;100.00
30554;BME280;17335;50.720;7.452;2023-02-03T00:43:27;100241.00;;;7.17;100.00
30554;BME280;17335;50.720;7.452;2023-02-03T00:45:53;100236.53;;;7.17;100.00
30554;BME280;17335;50.720;7.452;2023-02-03T00:48:20;100225.19;;;7.13;100.00
30554;BME280;17335;50.720;7.452;2023-02-03T00:50:47;100220.63;;;7.16;100.00
30554;BME280;17335;50.720;7.452;2023-02-03T00:53:14;100216.97;;;7.17;100.00
30554;BME280;17335;50.720;7.452;2023-02-03T00:55:42;100220.28;;;7.20;100.00
30554;BME280;17335;50.720;7.452;2023-02-03T00:58:09;100223.47;;;7.12;100.00
30554;BME280;17335;50.720;7.452;2023-02-03T01:00:35;100221.75;;;7.11;100.00
30554;BME280;17335;50.720;7.452;2023-02-03T01:03:02;100214.09;;;7.20;100.00
30554;BME280;17335;50.720;7.452;2023-02-03T01:05:28;100215.91;;;7.19;100.00
30554;BME280;17335;50.720;7.452;2023-02-03T01:07:55;100211.34;;;7.21;100.00
30554;BME280;17335;50.720;7.452;2023-02-03T01:10:21;100212.28;;;7.20;100.00
30554;BME280;17335;50.720;7.452;2023-02-03T01:12:47;100206.00;;;7.21;100.00
30554;BME280;17335;50.720;7.452;2023-02-03T01:15:14;100189.47;;;7.29;100.00
30554;BME280;17335;50.720;7.452;2023-02-03T01:17:40;100198.44;;;7.28;100.00
30554;BME280;17335;50.720;7.452;2023-02-03T01:20:07;100208.03;;;7.30;100.00
30554;BME280;17335;50.720;7.452;2023-02-03T01:22:37;100198.31;;;7.29;100.00
30554;BME280;17335;50.720;7.452;2023-02-03T01:25:04;100203.97;;;7.25;100.00
30554;BME280;17335;50.720;7.452;2023-02-03T01:27:31;100206.84;;;7.22;100.00
30554;BME280;17335;50.720;7.452;2023-02-03T01:29:58;100200.66;;;7.21;100.00
30554;BME280;17335;50.720;7.452;2023-02-03T01:32:25;100194.91;;;7.27;100.00
30554;BME280;17335;50.720;7.452;2023-02-03T01:34:52;100198.53;;;7.26;100.00
30554;BME280;17335;50.720;7.452;2023-02-03T01:37:18;100192.69;;;7.34;100.00
30554;BME280;17335;50.720;7.452;2023-02-03T01:39:45;100200.66;;;7.21;100.00
30554;BME280;17335;50.720;7.452;2023-02-03T01:42:12;100203.56;;;7.31;100.00
30554;BME280;17335;50.720;7.452;2023-02-03T01:44:45;100222.84;;;7.22;100.00
30554;BME280;17335;50.720;7.452;2023-02-03T01:47:15;100232.75;;;7.34;100.00
30554;BME280;17335;50.720;7.452;2023-02-03T01:49:51;100228.34;;;7.33;100.00
30554;BME280;17335;50.720;7.452;2023-02-03T01:52:18;100227.59;;;7.31;100.00
30554;BME280;17335;50.720;7.452;2023-02-03T01:54:47;100229.84;;;7.37;100.00
30554;BME280;17335;50.720;7.452;2023-02-03T01:57:20;100226.69;;;7.45;100.00
30554;BME280;17335;50.720;7.452;2023-02-03T01:59:47;100216.09;;;7.43;100.00
30554;BME280;17335;50.720;7.452;2023-02-03T02:02:13;100221.94;;;7.36;100.00
30554;BME280;17335;50.720;7.452;2023-02-03T02:07:15;100226.78;;;7.43;100.00
30554;BME280;17335;50.720;7.452;2023-02-03T02:09:43;100216.94;;;7.44;100.00
30554;BME280;17335;50.720;7.452;2023-02-03T02:12:11;100229.66;;;7.40;100.00
30554;BME280;17335;50.720;7.452;2023-02-03T02:14:38;100235.97;;;7.39;100.00
30554;BME280;17335;50.720;7.452;2023-02-03T02:31:48;100207.97;;;7.45;100.00
30554;BME280;17335;50.720;7.452;2023-02-03T02:34:36;100210.84;;;7.42;100.00
30554;BME280;17335;50.720;7.452;2023-02-03T02:45:21;100220.81;;;7.53;100.00
30554;BME280;17335;50.720;7.452;2023-02-03T02:47:56;100207.88;;;7.46;100.00
30554;BME280;17335;50.720;7.452;2023-02-03T02:50:28;100199.22;;;7.43;100.00
30554;BME280;17335;50.720;7.452;2023-02-03T02:52:57;100194.41;;;7.48;100.00
30554;BME280;17335;50.720;7.452;2023-02-03T02:55:27;100181.03;;;7.35;100.00
30554;BME280;17335;50.720;7.452;2023-02-03T02:57:59;100184.25;;;7.40;100.00
30554;BME280;17335;50.720;7.452;2023-02-03T03:00:33;100165.03;;;7.48;100.00
30554;BME280;17335;50.720;7.452;2023-02-03T03:03:18;100169.19;;;7.52;100.00
30554;BME280;17335;50.720;7.452;2023-02-03T03:05:50;100180.53;;;7.43;100.00
30554;BME280;17335;50.720;7.452;2023-02-03T03:08:22;100174.53;;;7.39;100.00
30554;BME280;17335;50.720;7.452;2023-02-03T03:10:51;100176.44;;;7.37;100.00
30554;BME280;17335;50.720;7.452;2023-02-03T03:13:22;100184.44;;;7.37;100.00
30554;BME280;17335;50.720;7.452;2023-02-03T03:15:51;100193.78;;;7.44;100.00
30554;BME280;17335;50.720;7.452;2023-02-03T03:20:49;100202.00;;;7.41;100.00
30554;BME280;17335;50.720;7.452;2023-02-03T03:23:25;100192.25;;;7.40;100.00
30554;BME280;17335;50.720;7.452;2023-02-03T03:25:59;100172.72;;;7.53;100.00
30554;BME280;17335;50.720;7.452;2023-02-03T03:28:45;100182.84;;;7.47;100.00
30554;BME280;17335;50.720;7.452;2023-02-03T03:31:15;100169.41;;;7.49;100.00
30554;BME280;17335;50.720;7.452;2023-02-03T03:33:44;100159.78;;;7.46;100.00
30554;BME280;17335;50.720;7.452;2023-02-03T03:36:19;100148.75;;;7.38;100.00
30554;BME280;17335;50.720;7.452;2023-02-03T03:38:56;100157.97;;;7.47;100.00
30554;BME280;17335;50.720;7.452;2023-02-03T03:41:35;100153.91;;;7.41;100.00
30554;BME280;17335;50.720;7.452;2023-02-03T03:44:07;100158.72;;;7.36;100.00
30554;BME280;17335;50.720;7.452;2023-02-03T03:46:43;100163.22;;;7.48;100.00
30554;BME280;17335;50.720;7.452;2023-02-03T03:49:10;100169.09;;;7.54;100.00
30554;BME280;17335;50.720;7.452;2023-02-03T03:52:00;100163.94;;;7.50;100.00
30554;BME280;17335;50.720;7.452;2023-02-03T03:54:29;100174.44;;;7.54;100.00
30554;BME280;17335;50.720;7.452;2023-02-03T03:57:05;100172.16;;;7.47;100.00
30554;BME280;17335;50.720;7.452;2023-02-03T03:59:38;100188.94;;;7.49;100.00
30554;BME280;17335;50.720;7.452;2023-02-03T04:02:06;100179.97;;;7.50;100.00
30554;BME280;17335;50.720;7.452;2023-02-03T04:04:35;100193.44;;;7.49;100.00
30554;BME280;17335;50.720;7.452;2023-02-03T04:07:02;100177.41;;;7.49;100.00
30554;BME280;17335;50.720;7.452;2023-02-03T04:09:29;100179.69;;;7.55;100.00
30554;BME280;17335;50.720;7.452;2023-02-03T04:11:55;100153.06;;;7.54;100.00
30554;BME280;17335;50.720;7.452;2023-02-03T04:14:30;100161.06;;;7.54;100.00
30554;BME280;17335;50.720;7.452;2023-02-03T04:16:57;100163.00;;;7.51;100.00
30554;BME280;17335;50.720;7.452;2023-02-03T04:19:24;100169.09;;;7.54;100.00
30554;BME280;17335;50.720;7.452;2023-02-03T04:21:50;100174.00;;;7.60;100.00
30554;BME280;17335;50.720;7.452;2023-02-03T04:24:17;100186.72;;;7.56;100.00
30554;BME280;17335;50.720;7.452;2023-02-03T04:26:44;100170.25;;;7.49;100.00
30554;BME280;17335;50.720;7.452;2023-02-03T04:29:10;100179.34;;;7.47;100.00
30554;BME280;17335;50.720;7.452;2023-02-03T04:31:37;100161.38;;;7.49;100.00
30554;BME280;17335;50.720;7.452;2023-02-03T04:34:04;100161.72;;;7.57;100.00
30554;BME280;17335;50.720;7.452;2023-02-03T04:36:31;100156.78;;;7.51;100.00
30554;BME280;17335;50.720;7.452;2023-02-03T04:38:57;100149.09;;;7.46;100.00
30554;BME280;17335;50.720;7.452;2023-02-03T04:41:24;100155.19;;;7.48;100.00
30554;BME280;17335;50.720;7.452;2023-02-03T04:43:50;100156.03;;;7.49;100.00
30554;BME280;17335;50.720;7.452;2023-02-03T04:46:17;100164.59;;;7.54;100.00
30554;BME280;17335;50.720;7.452;2023-02-03T04:48:44;100156.47;;;7.56;100.00
30554;BME280;17335;50.720;7.452;2023-02-03T04:51:10;100152.22;;;7.53;100.00
30554;BME280;17335;50.720;7.452;2023-02-03T04:53:37;100157.13;;;7.46;100.00
30554;BME280;17335;50.720;7.452;2023-02-03T04:56:04;100142.78;;;7.47;100.00
30554;BME280;17335;50.720;7.452;2023-02-03T04:58:30;100143.22;;;7.41;100.00
30554;BME280;17335;50.720;7.452;2023-02-03T05:00:57;100143.22;;;7.41;100.00
30554;BME280;17335;50.720;7.452;2023-02-03T05:03:23;100138.63;;;7.43;100.00
30554;BME280;17335;50.720;7.452;2023-02-03T05:05:51;100142.13;;;7.44;100.00
30554;BME280;17335;50.720;7.452;2023-02-03T05:08:21;100146.84;;;7.40;100.00
30554;BME280;17335;50.720;7.452;2023-02-03T05:10:48;100137.53;;;7.46;100.00
30554;BME280;17335;50.720;7.452;2023-02-03T05:13:14;100146.63;;;7.43;100.00
30554;BME280;17335;50.720;7.452;2023-02-03T05:15:41;100148.13;;;7.47;100.00
30554;BME280;17335;50.720;7.452;2023-02-03T05:18:07;100150.78;;;7.47;100.00
30554;BME280;17335;50.720;7.452;2023-02-03T05:20:34;100152.81;;;7.44;100.00
30554;BME280;17335;50.720;7.452;2023-02-03T05:23:00;100141.50;;;7.40;100.00
30554;BME280;17335;50.720;7.452;2023-02-03T05:25:27;100126.00;;;7.45;100.00
30554;BME280;17335;50.720;7.452;2023-02-03T05:27:53;100135.00;;;7.44;100.00
30554;BME280;17335;50.720;7.452;2023-02-03T05:30:20;100152.72;;;7.45;100.00
30554;BME280;17335;50.720;7.452;2023-02-03T05:32:47;100147.19;;;7.48;100.00
30554;BME280;17335;50.720;7.452;2023-02-03T05:35:14;100153.25;;;7.50;100.00
30554;BME280;17335;50.720;7.452;2023-02-03T05:37:43;100148.56;;;7.54;100.00
30554;BME280;17335;50.720;7.452;2023-02-03T05:40:12;100149.41;;;7.55;100.00
30554;BME280;17335;50.720;7.452;2023-02-03T05:42:57;100129.66;;;7.57;100.00
30554;BME280;17335;50.720;7.452;2023-02-03T05:45:23;100152.31;;;7.64;100.00
30554;BME280;17335;50.720;7.452;2023-02-03T05:47:50;100144.59;;;7.60;100.00
30554;BME280;17335;50.720;7.452;2023-02-03T05:50:16;100157.75;;;7.63;100.00
30554;BME280;17335;50.720;7.452;2023-02-03T05:52:43;100154.56;;;7.58;100.00
30554;BME280;17335;50.720;7.452;2023-02-03T05:55:09;100152.84;;;7.57;100.00
30554;BME280;17335;50.720;7.452;2023-02-03T05:57:36;100152.63;;;7.60;100.00
30554;BME280;17335;50.720;7.452;2023-02-03T06:00:03;100137.56;;;7.59;100.00
30554;BME280;17335;50.720;7.452;2023-02-03T06:02:29;100143.00;;;7.70;100.00
30554;BME280;17335;50.720;7.452;2023-02-03T06:04:56;100152.63;;;7.60;100.00
30554;BME280;17335;50.720;7.452;2023-02-03T06:07:22;100143.44;;;7.51;100.00
30554;BME280;17335;50.720;7.452;2023-02-03T06:09:49;100152.75;;;7.58;100.00
30554;BME280;17335;50.720;7.452;2023-02-03T06:12:15;100134.88;;;7.46;100.00
30554;BME280;17335;50.720;7.452;2023-02-03T06:14:42;100133.16;;;7.58;100.00
30554;BME280;17335;50.720;7.452;2023-02-03T06:17:08;100126.13;;;7.57;100.00
30554;BME280;17335;50.720;7.452;2023-02-03T06:19:35;100129.00;;;7.54;100.00
30554;BME280;17335;50.720;7.452;2023-02-03T06:22:01;100137.03;;;7.54;100.00
30554;BME280;17335;50.720;7.452;2023-02-03T06:24:28;100132.44;;;7.56;100.00
30554;BME280;17335;50.720;7.452;2023-02-03T06:26:55;100149.66;;;7.51;100.00
30554;BME280;17335;50.720;7.452;2023-02-03T06:29:21;100156.47;;;7.56;100.00
30554;BME280;17335;50.720;7.452;2023-02-03T06:31:47;100149.84;;;7.61;100.00
30554;BME280;17335;50.720;7.452;2023-02-03T06:34:14;100141.31;;;7.69;100.00
30554;BME280;17335;50.720;7.452;2023-02-03T06:36:41;100159.69;;;7.61;100.00
30554;BME280;17335;50.720;7.452;2023-02-03T06:39:07;100149.53;;;7.66;100.00
30554;BME280;17335;50.720;7.452;2023-02-03T06:41:34;100143.13;;;7.68;100.00
30554;BME280;17335;50.720;7.452;2023-02-03T06:44:00;100135.13;;;7.68;100.00
30554;BME280;17335;50.720;7.452;2023-02-03T06:46:27;100138.66;;;7.69;100.00
30554;BME280;17335;50.720;7.452;2023-02-03T06:48:55;100147.59;;;7.68;100.00
30554;BME280;17335;50.720;7.452;2023-02-03T06:51:22;100152.94;;;7.68;100.00
30554;BME280;17335;50.720;7.452;2023-02-03T06:53:50;100164.63;;;7.67;100.00
30554;BME280;17335;50.720;7.452;2023-02-03T06:56:17;100164.09;;;7.62;100.00
30554;BME280;17335;50.720;7.452;2023-02-03T06:58:43;100157.16;;;7.72;100.00
30554;BME280;17335;50.720;7.452;2023-02-03T07:01:10;100150.28;;;7.68;100.00
30554;BME280;17335;50.720;7.452;2023-02-03T07:03:37;100154.13;;;7.64;100.00
30554;BME280;17335;50.720;7.452;2023-02-03T07:06:04;100149.34;;;7.69;100.00
30554;BME280;17335;50.720;7.452;2023-02-03T07:08:30;100141.72;;;7.63;100.00
30554;BME280;17335;50.720;7.452;2023-02-03T07:10:57;100144.28;;;7.64;100.00
30554;BME280;17335;50.720;7.452;2023-02-03T07:13:23;100154.56;;;7.70;100.00
30554;BME280;17335;50.720;7.452;2023-02-03T07:15:51;100147.50;;;7.69;100.00
30554;BME280;17335;50.720;7.452;2023-02-03T07:18:18;100143.88;;;7.70;100.00
30554;BME280;17335;50.720;7.452;2023-02-03T07:21:09;100149.44;;;7.67;100.00
30554;BME280;17335;50.720;7.452;2023-02-03T07:23:36;100157.56;;;7.66;100.00
30554;BME280;17335;50.720;7.452;2023-02-03T07:26:03;100157.25;;;7.70;100.00
30554;BME280;17335;50.720;7.452;2023-02-03T07:28:31;100163.97;;;7.76;100.00
30554;BME280;17335;50.720;7.452;2023-02-03T07:30:58;100171.03;;;7.77;100.00
30554;BME280;17335;50.720;7.452;2023-02-03T07:33:27;100152.63;;;7.85;100.00
30554;BME280;17335;50.720;7.452;2023-02-03T07:35:55;100152.00;;;7.82;100.00
30554;BME280;17335;50.720;7.452;2023-02-03T07:38:23;100153.59;;;7.84;100.00
30554;BME280;17335;50.720;7.452;2023-02-03T07:40:50;100156.06;;;7.75;100.00
30554;BME280;17335;50.720;7.452;2023-02-03T07:43:17;100148.25;;;7.84;100.00
30554;BME280;17335;50.720;7.452;2023-02-03T07:45:44;100158.41;;;7.79;100.00
30554;BME280;17335;50.720;7.452;2023-02-03T07:48:11;100169.22;;;7.78;100.00
30554;BME280;17335;50.720;7.452;2023-02-03T07:50:38;100167.81;;;7.85;100.00
30554;BME280;17335;50.720;7.452;2023-02-03T07:53:06;100160.78;;;7.84;100.00
30554;BME280;17335;50.720;7.452;2023-02-03T07:55:37;100167.09;;;7.83;100.00
30554;BME280;17335;50.720;7.452;2023-02-03T07:58:04;100162.25;;;7.88;100.00
30554;BME280;17335;50.720;7.452;2023-02-03T08:00:31;100154.78;;;7.93;100.00
30554;BME280;17335;50.720;7.452;2023-02-03T08:02:58;100149.84;;;7.87;100.00
30554;BME280;17335;50.720;7.452;2023-02-03T08:05:25;100162.91;;;7.92;100.00
30554;BME280;17335;50.720;7.452;2023-02-03T08:07:51;100166.44;;;7.92;100.00
30554;BME280;17335;50.720;7.452;2023-02-03T08:10:18;100166.31;;;7.94;100.00
30554;BME280;17335;50.720;7.452;2023-02-03T08:12:44;100175.97;;;7.96;100.00
30554;BME280;17335;50.720;7.452;2023-02-03T08:15:13;100178.41;;;7.99;100.00
30554;BME280;17335;50.720;7.452;2023-02-03T08:17:39;100185.34;;;8.02;100.00
30554;BME280;17335;50.720;7.452;2023-02-03T08:20:08;100180.00;;;8.02;100.00
30554;BME280;17335;50.720;7.452;2023-02-03T08:22:35;100180.84;;;8.02;100.00
30554;BME280;17335;50.720;7.452;2023-02-03T08:25:02;100185.78;;;7.96;100.00
30554;BME280;17335;50.720;7.452;2023-02-03T08:27:30;100183.00;;;8.10;100.00
30554;BME280;17335;50.720;7.452;2023-02-03T08:29:57;100179.38;;;7.98;100.00
30554;BME280;17335;50.720;7.452;2023-02-03T08:32:23;100174.25;;;7.95;100.00
30554;BME280;17335;50.720;7.452;2023-02-03T08:34:51;100165.25;;;7.96;100.00
30554;BME280;17335;50.720;7.452;2023-02-03T08:37:20;100171.47;;;7.97;100.00
30554;BME280;17335;50.720;7.452;2023-02-03T08:39:47;100173.19;;;7.98;100.00
30554;BME280;17335;50.720;7.452;2023-02-03T08:42:14;100179.38;;;7.98;100.00
30554;BME280;17335;50.720;7.452;2023-02-03T08:44:41;100183.22;;;8.07;100.00
30554;BME280;17335;50.720;7.452;2023-02-03T08:47:10;100186.09;;;8.17;100.00
30554;BME280;17335;50.720;7.452;2023-02-03T08:49:37;100192.09;;;8.07;100.00
30554;BME280;17335;50.720;7.452;2023-02-03T08:52:10;100186.44;;;8.12;100.00
30554;BME280;17335;50.720;7.452;2023-02-03T08:54:38;100195.19;;;8.14;100.00
30554;BME280;17335;50.720;7.452;2023-02-03T08:57:05;100179.88;;;8.16;100.00
30554;BME280;17335;50.720;7.452;2023-02-03T08:59:31;100183.84;;;8.23;100.00
30554;BME280;17335;50.720;7.452;2023-02-03T09:02:05;100184.81;;;8.22;100.00
30554;BME280;17335;50.720;7.452;2023-02-03T09:04:34;100202.69;;;8.22;100.00
30554;BME280;17335;50.720;7.452;2023-02-03T09:07:01;100203.00;;;8.17;100.00
30554;BME280;17335;50.720;7.452;2023-02-03T09:09:29;100195.19;;;8.14;100.00
30554;BME280;17335;50.720;7.452;2023-02-03T09:11:57;100190.94;;;8.12;100.00
30554;BME280;17335;50.720;7.452;2023-02-03T09:14:28;100196.28;;;8.12;100.00
30554;BME280;17335;50.720;7.452;2023-02-03T09:16:55;100196.34;;;8.23;100.00
30554;BME280;17335;50.720;7.452;2023-02-03T09:19:21;100191.09;;;8.21;100.00
30554;BME280;17335;50.720;7.452;2023-02-03T09:21:48;100196.47;;;8.21;100.00
30554;BME280;17335;50.720;7.452;2023-02-03T09:24:15;100193.88;;;8.20;100.00
30554;BME280;17335;50.720;7.452;2023-02-03T09:26:43;100204.19;;;8.13;100.00
30554;BME280;17335;50.720;7.452;2023-02-03T09:29:10;100201.53;;;8.13;100.00
30554;BME280;17335;50.720;7.452;2023-02-03T09:31:36;100205.56;;;8.06;100.00
30554;BME280;17335;50.720;7.452;2023-02-03T09:34:03;100209.22;;;8.05;100.00
30554;BME280;17335;50.720;7.452;2023-02-03T09:36:29;100210.81;;;7.95;100.00
30554;BME280;17335;50.720;7.452;2023-02-03T09:38:56;100205.69;;;7.92;100.00
30554;BME280;17335;50.720;7.452;2023-02-03T09:41:42;100203.00;;;7.92;100.00
30554;BME280;17335;50.720;7.452;2023-02-03T09:44:34;100189.31;;;7.83;100.00
30554;BME280;17335;50.720;7.452;2023-02-03T09:47:09;100219.59;;;7.84;100.00
30554;BME280;17335;50.720;7.452;2023-02-03T09:49:41;100194.66;;;7.83;100.00
30554;BME280;17335;50.720;7.452;2023-02-03T09:52:20;100193.91;;;7.81;100.00
30554;BME280;17335;50.720;7.452;2023-02-03T09:55:23;100186.09;;;7.78;100.00
30554;BME280;17335;50.720;7.452;2023-02-03T09:58:04;100191.66;;;7.75;100.00
30554;BME280;17335;50.720;7.452;2023-02-03T10:00:51;100197.22;;;7.72;100.00
30554;BME280;17335;50.720;7.452;2023-02-03T10:03:48;100188.78;;;7.78;100.00
30554;BME280;17335;50.720;7.452;2023-02-03T10:06:32;100192.72;;;7.85;100.00
30554;BME280;17335;50.720;7.452;2023-02-03T10:19:46;100199.56;;;8.02;100.00
30554;BME280;17335;50.720;7.452;2023-02-03T10:22:19;100203.41;;;8.11;100.00
30554;BME280;17335;50.720;7.452;2023-02-03T10:27:35;100210.81;;;8.07;100.00
30554;BME280;17335;50.720;7.452;2023-02-03T10:30:09;100215.31;;;8.07;100.00
30554;BME280;17335;50.720;7.452;2023-02-03T10:32:41;100212.09;;;8.15;100.00
30554;BME280;17335;50.720;7.452;2023-02-03T10:35:14;100228.25;;;8.13;100.00
30554;BME280;17335;50.720;7.452;2023-02-03T10:37:43;100243.13;;;8.17;100.00
30554;BME280;17335;50.720;7.452;2023-02-03T10:40:12;100234.16;;;8.18;100.00
30554;BME280;17335;50.720;7.452;2023-02-03T10:42:41;100224.41;;;8.17;100.00
30554;BME280;17335;50.720;7.452;2023-02-03T10:45:28;100220.31;;;8.24;100.00
30554;BME280;17335;50.720;7.452;2023-02-03T10:47:56;100222.47;;;8.19;100.00
30554;BME280;17335;50.720;7.452;2023-02-03T10:50:25;100221.53;;;8.20;100.00
30554;BME280;17335;50.720;7.452;2023-02-03T10:55:48;100202.25;;;8.15;100.00
30554;BME280;17335;50.720;7.452;2023-02-03T10:58:27;100204.38;;;8.23;100.00
30554;BME280;17335;50.720;7.452;2023-02-03T11:01:03;100206.22;;;8.22;100.00
30554;BME280;17335;50.720;7.452;2023-02-03T11:03:30;100200.66;;;8.25;100.00
30554;BME280;17335;50.720;7.452;2023-02-03T11:06:14;100196.03;;;8.27;100.00
30554;BME280;17335;50.720;7.452;2023-02-03T11:08:43;100194.94;;;8.30;100.00
30554;BME280;17335;50.720;7.452;2023-02-03T11:11:28;100183.19;;;8.33;100.00
30554;BME280;17335;50.720;7.452;2023-02-03T11:16:32;100199.25;;;8.33;100.00
30554;BME280;17335;50.720;7.452;2023-02-03T11:19:16;100197.00;;;8.39;100.00
30554;BME280;17335;50.720;7.452;2023-02-03T11:21:49;100191.09;;;8.47;100.00
30554;BME280;17335;50.720;7.452;2023-02-03T11:26:51;100185.75;;;8.47;100.00
30554;BME280;17335;50.720;7.452;2023-02-03T11:29:29;100182.63;;;8.53;100.00
30554;BME280;17335;50.720;7.452;2023-02-03T11:31:59;100183.38;;;8.55;100.00
30554;BME280;17335;50.720;7.452;2023-02-03T11:34:32;100167.63;;;8.63;100.00
30554;BME280;17335;50.720;7.452;2023-02-03T11:37:30;100180.91;;;8.65;100.00
30554;BME280;17335;50.720;7.452;2023-02-03T11:42:35;100161.47;;;8.74;100.00
30554;BME280;17335;50.720;7.452;2023-02-03T11:48:00;100172.50;;;8.70;100.00
30554;BME280;17335;50.720;7.452;2023-02-03T11:53:21;100170.09;;;8.67;100.00
30554;BME280;17335;50.720;7.452;2023-02-03T11:59:19;100183.91;;;8.60;100.00
30554;BME280;17335;50.720;7.452;2023-02-03T12:10:59;100201.81;;;8.47;100.00
30554;BME280;17335;50.720;7.452;2023-02-03T12:16:37;100212.63;;;8.45;100.00
30554;BME280;17335;50.720;7.452;2023-02-03T12:22:05;100190.53;;;8.42;100.00
30554;BME280;17335;50.720;7.452;2023-02-03T12:27:33;100203.91;;;8.42;100.00
30554;BME280;17335;50.720;7.452;2023-02-03T12:30:20;100198.78;;;8.39;100.00
30554;BME280;17335;50.720;7.452;2023-02-03T12:32:52;100200.31;;;8.43;100.00
30554;BME280;17335;50.720;7.452;2023-02-03T12:35:29;100203.28;;;8.38;100.00
30554;BME280;17335;50.720;7.452;2023-02-03T12:38:04;100215.72;;;8.39;100.00
30554;BME280;17335;50.720;7.452;2023-02-03T12:40:41;100177.63;;;8.36;100.00
30554;BME280;17335;50.720;7.452;2023-02-03T12:43:37;100193.44;;;8.39;100.00
30554;BME280;17335;50.720;7.452;2023-02-03T12:48:59;100182.88;;;8.37;100.00
30554;BME280;17335;50.720;7.452;2023-02-03T12:51:38;100184.88;;;8.34;100.00
30554;BME280;17335;50.720;7.452;2023-02-03T12:54:46;100192.41;;;8.29;100.00
30554;BME280;17335;50.720;7.452;2023-02-03T12:57:29;100185.00;;;8.32;100.00
30554;BME280;17335;50.720;7.452;2023-02-03T13:06:11;100187.56;;;8.34;100.00
30554;BME280;17335;50.720;7.452;2023-02-03T13:08:50;100181.56;;;8.30;100.00
30554;BME280;17335;50.720;7.452;2023-02-03T13:11:34;100188.44;;;8.34;100.00
30554;BME280;17335;50.720;7.452;2023-02-03T13:16:57;100199.25;;;8.33;100.00
30554;BME280;17335;50.720;7.452;2023-02-03T13:19:42;100199.78;;;8.38;100.00
30554;BME280;17335;50.720;7.452;2023-02-03T13:22:12;100177.53;;;8.37;100.00
30554;BME280;17335;50.720;7.452;2023-02-03T13:24:43;100184.66;;;8.37;100.00
30554;BME280;17335;50.720;7.452;2023-02-03T13:33:04;100185.66;;;8.36;100.00
30554;BME280;17335;50.720;7.452;2023-02-03T13:41:18;100185.53;;;8.37;100.00
30554;BME280;17335;50.720;7.452;2023-02-03T13:43:50;100161.56;;;8.36;100.00
30554;BME280;17335;50.720;7.452;2023-02-03T13:46:38;100176.38;;;8.29;100.00
30554;BME280;17335;50.720;7.452;2023-02-03T13:49:06;100174.63;;;8.27;100.00
30554;BME280;17335;50.720;7.452;2023-02-03T13:51:42;100183.84;;;8.23;100.00
30554;BME280;17335;50.720;7.452;2023-02-03T13:54:26;100183.19;;;8.20;100.00
30554;BME280;17335;50.720;7.452;2023-02-03T13:56:59;100191.09;;;8.21;100.00
30554;BME280;17335;50.720;7.452;2023-02-03T14:07:34;100216.91;;;8.10;100.00
30554;BME280;17335;50.720;7.452;2023-02-03T14:15:27;100220.03;;;8.03;100.00
30554;BME280;17335;50.720;7.452;2023-02-03T14:18:04;100216.25;;;8.06;100.00
30554;BME280;17335;50.720;7.452;2023-02-03T14:20:54;100200.56;;;8.01;100.00
30554;BME280;17335;50.720;7.452;2023-02-03T14:23:25;100194.22;;;8.02;100.00
30554;BME280;17335;50.720;7.452;2023-02-03T14:25:57;100204.28;;;7.99;100.00
30554;BME280;17335;50.720;7.452;2023-02-03T14:28:30;100204.38;;;7.97;100.00
30554;BME280;17335;50.720;7.452;2023-02-03T14:31:50;100218.63;;;7.98;100.00
30554;BME280;17335;50.720;7.452;2023-02-03T14:34:17;100226.66;;;7.98;100.00
30554;BME280;17335;50.720;7.452;2023-02-03T14:36:52;100227.41;;;8.00;100.00
30554;BME280;17335;50.720;7.452;2023-02-03T14:42:16;100239.91;;;7.99;100.00
30554;BME280;17335;50.720;7.452;2023-02-03T14:45:00;100241.81;;;7.97;100.00
30554;BME280;17335;50.720;7.452;2023-02-03T14:53:14;100249.53;;;8.02;100.00
30554;BME280;17335;50.720;7.452;2023-02-03T14:58:33;100228.78;;;7.93;100.00
30554;BME280;17335;50.720;7.452;2023-02-03T15:01:04;100234.88;;;7.95;100.00
30554;BME280;17335;50.720;7.452;2023-02-03T15:03:32;100242.03;;;7.94;100.00
30554;BME280;17335;50.720;7.452;2023-02-03T15:06:03;100231.88;;;7.99;100.00
30554;BME280;17335;50.720;7.452;2023-02-03T15:08:39;100229.44;;;7.96;100.00
30554;BME280;17335;50.720;7.452;2023-02-03T15:13:54;100266.88;;;7.96;100.00
30554;BME280;17335;50.720;7.452;2023-02-03T15:16:23;100256.38;;;7.93;100.00
30554;BME280;17335;50.720;7.452;2023-02-03T15:18:56;100248.16;;;7.96;100.00